Time;durP1;ratioP1;P1;durP2;ratioP2;P2;SDS_P1;SDS_P2;PMS_P1;PMS_P2;Temp;Humidity;BMP_temperature;BMP_pressure;BME280_temperature;BME280_humidity;BME280_pressure;Samples;Min_cycle;Max_cycle;Signal;HPM_P1;HPM_P2
2022/04/26 03:37:25;;;;;;;63.60;29.27;;;;;;;5.84;88.46;100177.28;4982261;28;20547;-79
2022/04/26 03:39:51;;;;;;;45.00;26.73;;;;;;;5.85;88.75;100178.16;4983106;28;20491;-78
2022/04/26 03:42:18;;;;;;;45.57;28.90;;;;;;;5.93;88.97;100180.22;4982695;28;20480;-78
2022/04/26 03:44:45;;;;;;;44.50;26.93;;;;;;;5.93;88.94;100181.06;4982806;28;20512;-78
2022/04/26 03:47:11;;;;;;;69.27;30.83;;;;;;;5.96;88.92;100186.19;4982160;28;20723;-78
2022/04/26 03:49:38;;;;;;;51.63;28.37;;;;;;;5.98;89.19;100186.91;4982421;28;20456;-78
2022/04/26 03:52:07;;;;;;;62.90;29.67;;;;;;;6.06;88.96;100194.34;4981624;28;20555;-78
2022/04/26 03:54:35;;;;;;;57.67;32.17;;;;;;;6.07;89.00;100189.88;4982822;28;20453;-78
2022/04/26 03:57:01;;;;;;;72.90;31.77;;;;;;;6.05;89.41;100184.66;4980641;28;20484;-78
2022/04/26 03:59:28;;;;;;;62.93;32.20;;;;;;;6.11;89.54;100191.31;4983215;28;20691;-78
2022/04/26 04:01:55;;;;;;;42.53;28.30;;;;;;;6.25;89.44;100192.94;4982339;28;21009;-78
2022/04/26 04:04:21;;;;;;;47.73;30.30;;;;;;;6.30;89.03;100194.31;4982676;28;21025;-78
2022/04/26 04:06:48;;;;;;;51.00;29.60;;;;;;;6.25;89.28;100188.50;4981277;28;20558;-78
2022/04/26 04:09:16;;;;;;;80.83;33.67;;;;;;;6.35;89.36;100188.66;4982634;28;21044;-78
2022/04/26 04:11:43;;;;;;;46.30;30.30;;;;;;;6.39;89.63;100190.97;4981762;28;20512;-79
2022/04/26 04:14:09;;;;;;;105.07;33.77;;;;;;;6.42;89.94;100189.88;4982217;28;20460;-78
2022/04/26 04:16:36;;;;;;;83.20;32.77;;;;;;;6.48;89.87;100192.09;4981622;28;20574;-78
2022/04/26 04:19:21;;;;;;;194.20;36.50;;;;;;;6.55;90.12;100195.13;4982472;28;20483;-78
2022/04/26 04:21:48;;;;;;;181.97;37.57;;;;;;;6.32;90.81;100199.50;4976521;28;20480;-75
2022/04/26 04:24:23;;;;;;;104.87;33.33;;;;;;;6.06;92.07;100194.34;4982046;28;20456;-75
2022/04/26 04:26:50;;;;;;;132.80;36.17;;;;;;;6.21;92.13;100205.59;4981717;28;20531;-76
2022/04/26 04:29:17;;;;;;;116.00;36.30;;;;;;;6.15;92.25;100206.09;4988849;28;20448;-76
2022/04/26 04:31:45;;;;;;;92.40;32.03;;;;;;;6.27;92.37;100207.81;4986963;28;20495;-76
2022/04/26 04:34:11;;;;;;;81.77;33.27;;;;;;;6.34;92.07;100206.41;4987492;28;20486;-76
2022/04/26 04:36:39;;;;;;;148.50;35.47;;;;;;;6.41;91.76;100207.63;4988978;28;20576;-73
2022/04/26 04:39:06;;;;;;;75.57;33.57;;;;;;;6.41;91.86;100206.78;4982274;28;20495;-80
2022/04/26 04:41:36;;;;;;;130.90;35.83;;;;;;;6.34;91.89;100222.34;4982280;28;20500;-80
2022/04/26 04:44:08;;;;;;;163.63;35.50;;;;;;;6.33;91.91;100225.09;4981208;28;20522;-80
2022/04/26 04:46:35;;;;;;;159.47;37.20;;;;;;;6.34;92.07;100213.53;4981190;28;20488;-79
2022/04/26 04:49:01;;;;;;;120.43;34.03;;;;;;;6.25;92.25;100224.81;4981396;28;20527;-79
2022/04/26 04:51:28;;;;;;;172.53;36.40;;;;;;;6.37;92.42;100226.56;4987942;28;20549;-81
2022/04/26 04:53:55;;;;;;;77.10;34.40;;;;;;;6.42;92.26;100221.75;4986052;28;20455;-80
2022/04/26 04:56:23;;;;;;;178.87;39.27;;;;;;;6.22;92.69;100231.22;4981241;28;20479;-80
2022/04/26 04:58:51;;;;;;;167.23;35.20;;;;;;;6.21;93.55;100232.16;4981663;28;20479;-80
2022/04/26 05:01:17;;;;;;;76.73;33.70;;;;;;;6.40;93.29;100237.78;4981217;28;20484;-80
2022/04/26 05:03:44;;;;;;;137.40;37.37;;;;;;;6.47;92.96;100234.69;4981681;28;20484;-80
2022/04/26 05:06:13;;;;;;;108.57;36.70;;;;;;;6.74;92.91;100240.59;4981772;28;20480;-81
2022/04/26 05:08:40;;;;;;;103.77;35.40;;;;;;;6.90;92.57;100236.75;4987096;28;20616;-81
2022/04/26 05:11:06;;;;;;;86.63;35.40;;;;;;;6.93;92.12;100233.88;4986878;28;20519;-83
2022/04/26 05:13:33;;;;;;;93.03;36.40;;;;;;;6.98;91.95;100237.03;4987735;28;20549;-81
2022/04/26 05:16:01;;;;;;;86.83;35.63;;;;;;;6.99;91.71;100238.72;4988666;28;20547;-83
2022/04/26 05:18:28;;;;;;;191.40;38.67;;;;;;;6.44;92.78;100245.53;4988391;28;20512;-81
2022/04/26 05:20:55;;;;;;;156.43;37.63;;;;;;;6.50;92.80;100237.13;4988096;28;20600;-74
2022/04/26 05:26:06;;;;;;;65.13;36.03;;;;;;;7.20;92.58;100241.50;4982071;28;20547;-79
2022/04/26 05:28:34;;;;;;;72.20;36.03;;;;;;;7.35;91.64;100245.63;4988695;28;20540;-80
2022/04/26 05:31:02;;;;;;;68.60;35.40;;;;;;;7.40;91.21;100239.97;4986831;28;20547;-80
2022/04/26 05:33:29;;;;;;;92.57;39.43;;;;;;;7.57;91.20;100243.97;4984404;28;20487;-78
2022/04/26 05:35:55;;;;;;;74.70;38.37;;;;;;;7.71;90.58;100241.06;4987698;28;20484;-83
2022/04/26 05:38:22;;;;;;;207.27;41.67;;;;;;;7.52;90.36;100246.16;4988775;28;20499;-79
2022/04/26 05:40:49;;;;;;;59.87;35.43;;;;;;;7.82;89.78;100250.84;4987477;28;20471;-79
2022/04/26 05:43:16;;;;;;;114.10;38.80;;;;;;;7.69;88.56;100248.31;4988403;28;20873;-80
2022/04/26 05:45:42;;;;;;;65.87;33.47;;;;;;;7.79;88.41;100247.56;4986896;28;20511;-80
2022/04/26 05:48:11;;;;;;;145.10;38.87;;;;;;;7.87;88.23;100251.31;4988722;28;20525;-81
2022/04/26 05:50:37;;;;;;;84.87;37.53;;;;;;;7.98;87.96;100254.94;4987714;28;20483;-82
2022/04/26 05:53:04;;;;;;;66.67;36.50;;;;;;;8.04;88.04;100249.97;4988337;28;20570;-81
2022/04/26 05:55:31;;;;;;;58.43;36.27;;;;;;;8.60;84.50;100246.28;4986993;28;20476;-81
2022/04/26 05:57:58;;;;;;;63.10;35.83;;;;;;;8.85;83.81;100246.88;4988403;28;20428;-79
2022/04/26 06:00:24;;;;;;;61.60;35.33;;;;;;;8.97;82.48;100248.50;4987862;28;20464;-79
2022/04/26 06:02:51;;;;;;;58.07;36.53;;;;;;;9.32;79.54;100254.47;4989916;28;20447;-81
2022/04/26 06:05:19;;;;;;;61.10;36.53;;;;;;;9.27;79.90;100260.22;4989707;28;20459;-81
2022/04/26 06:07:46;;;;;;;54.90;35.13;;;;;;;9.71;79.28;100257.34;4990120;28;20921;-80
2022/04/26 06:10:13;;;;;;;59.00;34.90;;;;;;;9.73;78.34;100261.53;4986532;28;20464;-80
2022/04/26 06:12:42;;;;;;;53.40;35.80;;;;;;;9.65;77.51;100263.19;4988118;28;20484;-78
2022/04/26 06:15:10;;;;;;;49.37;32.63;;;;;;;9.72;77.04;100257.19;4986760;28;20445;-79
2022/04/26 06:17:37;;;;;;;44.13;30.67;;;;;;;9.66;76.88;100257.72;4986657;28;20456;-79
2022/04/26 06:20:04;;;;;;;40.00;30.70;;;;;;;10.34;75.24;100263.28;4993634;28;20431;-79
2022/04/26 06:22:32;;;;;;;45.83;32.43;;;;;;;10.66;74.36;100255.97;4992873;28;20495;-80
2022/04/26 06:24:58;;;;;;;42.83;30.23;;;;;;;9.90;74.61;100267.25;4984304;28;20484;-80
2022/04/26 06:27:25;;;;;;;38.57;29.83;;;;;;;10.36;75.27;100264.00;4986742;28;20484;-79
2022/04/26 06:29:52;;;;;;;39.33;29.80;;;;;;;10.46;74.85;100255.97;4994195;28;20503;-79
2022/04/26 06:32:19;;;;;;;40.37;31.80;;;;;;;10.51;74.28;100256.41;4986282;28;20894;-80
2022/04/26 06:34:46;;;;;;;39.33;29.43;;;;;;;10.75;73.95;100263.16;4984716;28;20547;-79
2022/04/26 06:37:14;;;;;;;41.70;29.83;;;;;;;10.16;75.88;100265.75;4984079;28;20502;-79
2022/04/26 06:39:42;;;;;;;38.90;28.23;;;;;;;10.78;75.27;100273.59;4984559;28;20468;-79
2022/04/26 06:42:09;;;;;;;36.40;27.00;;;;;;;11.04;73.94;100267.63;4983786;28;20492;-80
2022/04/26 06:44:35;;;;;;;43.83;31.23;;;;;;;10.61;74.88;100275.13;4983328;28;20519;-77
2022/04/26 06:47:02;;;;;;;39.37;28.80;;;;;;;10.67;74.79;100279.06;4983494;28;20476;-77
2022/04/26 06:49:29;;;;;;;44.50;30.07;;;;;;;10.32;75.05;100283.09;4984157;28;20952;-79
2022/04/26 06:51:56;;;;;;;42.40;28.10;;;;;;;10.47;75.49;100276.38;4980564;28;20508;-79
2022/04/26 06:54:22;;;;;;;33.73;25.70;;;;;;;10.25;76.55;100287.28;4983896;28;20464;-78
2022/04/26 06:56:50;;;;;;;43.77;29.33;;;;;;;10.40;75.48;100288.63;4983398;28;20484;-79
2022/04/26 06:59:17;;;;;;;42.47;29.43;;;;;;;10.36;76.11;100293.41;4984027;28;20511;-79
2022/04/26 07:01:44;;;;;;;41.80;28.87;;;;;;;10.45;75.71;100290.84;4983427;28;20500;-79
2022/04/26 07:04:10;;;;;;;39.70;27.67;;;;;;;10.74;75.50;100281.03;4984267;28;20488;-79
2022/04/26 07:06:38;;;;;;;36.43;27.83;;;;;;;11.20;74.18;100277.75;4983987;28;20477;-79
2022/04/26 07:09:05;;;;;;;42.07;29.00;;;;;;;10.80;75.11;100287.66;4983572;28;20515;-80
2022/04/26 07:11:32;;;;;;;38.47;29.17;;;;;;;10.52;75.68;100287.50;4983498;28;20472;-80
2022/04/26 07:14:00;;;;;;;38.30;26.93;;;;;;;11.12;75.42;100273.94;4983619;28;20496;-80
2022/04/26 07:16:27;;;;;;;41.30;29.93;;;;;;;11.75;73.96;100285.91;4983548;28;20483;-79
2022/04/26 07:18:55;;;;;;;39.83;29.17;;;;;;;11.97;72.40;100270.47;4983700;28;20479;-81
2022/04/26 07:21:22;;;;;;;36.63;27.33;;;;;;;12.37;70.64;100285.31;4983396;28;20477;-81
2022/04/26 07:23:49;;;;;;;40.33;28.30;;;;;;;11.63;71.19;100289.72;4983317;28;21078;-79
2022/04/26 07:26:15;;;;;;;36.00;26.70;;;;;;;10.96;75.10;100288.91;4982919;28;20484;-80
2022/04/26 07:28:42;;;;;;;36.30;27.50;;;;;;;11.24;74.81;100290.69;4984025;28;20456;-79
2022/04/26 07:31:10;;;;;;;36.83;28.57;;;;;;;11.62;73.92;100288.91;4982444;28;21009;-80
2022/04/26 07:36:22;;;;;;;38.67;29.07;;;;;;;12.50;71.44;100277.75;4983065;28;20491;-80
2022/04/26 07:38:50;;;;;;;42.13;29.27;;;;;;;13.14;69.25;100286.50;4982664;28;20484;-80
2022/04/26 07:41:16;;;;;;;33.70;26.93;;;;;;;13.42;68.77;100288.22;4970822;28;20518;-80
2022/04/26 07:43:44;;;;;;;39.10;29.77;;;;;;;13.49;66.61;100282.06;4980918;28;21005;-78
2022/04/26 07:46:13;;;;;;;37.40;29.07;;;;;;;13.94;65.97;100291.72;4962492;28;20485;-80
2022/04/26 07:48:43;;;;;;;44.00;28.57;;;;;;;13.99;65.19;100291.22;4963648;29;20465;-80
2022/04/26 07:51:10;;;;;;;36.87;28.70;;;;;;;14.22;64.44;100296.03;4962072;28;21028;-81
2022/04/26 07:53:37;;;;;;;36.50;29.20;;;;;;;14.41;63.30;100297.56;4963511;28;20669;-80
2022/04/26 07:56:04;;;;;;;32.80;27.70;;;;;;;15.44;59.35;100295.28;4961838;28;20488;-80
2022/04/26 07:58:30;;;;;;;31.80;26.43;;;;;;;16.30;55.87;100295.53;4963223;29;20440;-79
2022/04/26 08:00:57;;;;;;;30.10;26.70;;;;;;;18.49;50.05;100287.50;4962344;29;20476;-80
2022/04/26 08:03:25;;;;;;;29.53;25.90;;;;;;;19.13;47.76;100287.53;4963369;29;20464;-80
2022/04/26 08:05:53;;;;;;;30.53;25.30;;;;;;;18.31;48.53;100305.00;4962199;28;21111;-80
2022/04/26 08:08:20;;;;;;;27.23;24.60;;;;;;;18.22;50.50;100301.56;4962789;29;20464;-80
2022/04/26 08:10:47;;;;;;;28.60;25.60;;;;;;;19.42;48.21;100311.94;4961396;28;20477;-81
2022/04/26 08:13:13;;;;;;;27.97;25.07;;;;;;;21.37;42.94;100312.47;4962026;29;20528;-80
2022/04/26 08:15:40;;;;;;;25.37;22.63;;;;;;;20.06;44.11;100310.91;4962231;28;20484;-79
2022/04/26 08:18:07;;;;;;;27.37;23.67;;;;;;;18.77;48.16;100310.09;4962730;29;20536;-81
2022/04/26 08:20:35;;;;;;;25.07;22.37;;;;;;;17.49;51.88;100306.78;4961398;28;20477;-80
2022/04/26 08:23:02;;;;;;;24.73;22.23;;;;;;;20.94;44.72;100316.44;4962570;29;20441;-80
2022/04/26 08:28:10;;;;;;;26.70;23.80;;;;;;;17.98;48.37;100315.41;4909419;29;20911;-80
2022/04/26 08:30:37;;;;;;;26.97;23.27;;;;;;;18.52;48.36;100315.06;4962315;28;20516;-81
2022/04/26 08:33:04;;;;;;;26.03;23.30;;;;;;;20.50;44.67;100317.75;4962681;29;20497;-80
2022/04/26 08:35:31;;;;;;;26.13;23.20;;;;;;;20.21;44.43;100316.22;4961015;28;20501;-79
2022/04/26 08:37:59;;;;;;;25.30;22.70;;;;;;;19.97;44.82;100321.09;4962731;29;20638;-80
2022/04/26 08:40:26;;;;;;;24.57;22.07;;;;;;;18.91;46.00;100329.22;4960138;28;20461;-79
2022/04/26 08:42:53;;;;;;;24.10;21.40;;;;;;;20.50;43.92;100317.75;4955133;29;20449;-82
2022/04/26 08:45:22;;;;;;;26.13;23.43;;;;;;;19.93;44.36;100323.38;4974416;28;20511;-80
2022/04/26 08:53:21;;;;;;;25.70;22.90;;;;;;;18.65;46.81;100325.19;4981452;28;20538;-80
2022/04/26 08:55:49;;;;;;;24.50;21.90;;;;;;;21.57;41.88;100326.09;4980768;28;20476;-81
2022/04/26 08:58:18;;;;;;;26.83;23.87;;;;;;;20.98;42.65;100331.28;4980669;28;20508;-80
2022/04/26 09:01:08;;;;;;;25.50;22.03;;;;;;;21.63;41.73;100333.41;4980858;28;20507;-80
2022/04/26 09:03:35;;;;;;;26.47;22.93;;;;;;;21.08;42.04;100340.91;4981510;28;20653;-79
2022/04/26 09:06:07;;;;;;;25.47;22.70;;;;;;;22.05;41.43;100353.00;4980359;28;20500;-80
2022/04/26 09:08:36;;;;;;;23.83;21.33;;;;;;;21.53;40.59;100341.16;4981545;28;20437;-80
2022/04/26 09:11:04;;;;;;;28.40;25.40;;;;;;;20.87;41.93;100343.59;4980411;28;20500;-79
2022/04/26 09:13:40;;;;;;;26.37;23.77;;;;;;;20.31;40.81;100343.78;4980660;28;20453;-81
2022/04/26 09:16:16;;;;;;;25.30;22.87;;;;;;;20.75;41.81;100353.41;4980667;28;20478;-79
2022/04/26 09:18:51;;;;;;;25.07;22.57;;;;;;;21.57;41.30;100342.41;4981763;28;20447;-80
2022/04/26 09:21:17;;;;;;;22.53;20.33;;;;;;;21.71;40.81;100345.94;4980480;28;20471;-81
2022/04/26 09:23:47;;;;;;;21.37;19.27;;;;;;;20.74;41.41;100349.00;4981064;28;20511;-80
2022/04/26 09:26:15;;;;;;;20.63;18.47;;;;;;;21.53;40.71;100352.88;4980508;28;20476;-80
2022/04/26 09:28:44;;;;;;;19.87;17.93;;;;;;;21.26;38.77;100352.00;4980345;28;20491;-81
2022/04/26 09:31:18;;;;;;;20.37;18.37;;;;;;;20.84;40.29;100346.72;4980555;28;20476;-81
2022/04/26 09:33:47;;;;;;;19.50;17.50;;;;;;;20.63;41.28;100358.56;4981282;28;20452;-79
2022/04/26 09:36:16;;;;;;;19.30;17.30;;;;;;;21.39;39.23;100352.00;4980199;28;20818;-80
2022/04/26 09:38:51;;;;;;;19.60;16.80;;;;;;;22.64;38.00;100356.56;4981757;28;20460;-82
2022/04/26 09:41:18;;;;;;;14.83;13.20;;;;;;;20.98;37.17;100349.47;4979644;28;20476;-80
2022/04/26 09:43:45;;;;;;;17.20;14.10;;;;;;;21.54;37.85;100353.69;4979994;28;20546;-79
2022/04/26 09:46:12;;;;;;;18.37;14.80;;;;;;;22.52;37.55;100355.59;4978837;28;20526;-81
2022/04/26 09:48:39;;;;;;;18.30;16.40;;;;;;;22.86;36.82;100361.69;4980962;28;20471;-80
2022/04/26 09:51:07;;;;;;;15.73;14.10;;;;;;;20.13;41.59;100363.34;4979337;28;20464;-80
2022/04/26 09:53:34;;;;;;;18.80;16.10;;;;;;;19.46;42.90;100353.88;4981502;28;20448;-80
2022/04/26 09:56:04;;;;;;;14.20;12.33;;;;;;;20.85;36.83;100353.84;4983822;28;20612;-81
2022/04/26 09:58:31;;;;;;;14.37;12.87;;;;;;;22.08;36.39;100362.63;4984287;28;20484;-80
2022/04/26 10:01:01;;;;;;;13.50;12.20;;;;;;;22.10;36.40;100365.97;4983690;28;20551;-79
2022/04/26 10:03:31;;;;;;;15.13;13.53;;;;;;;21.04;38.83;100371.22;4983590;28;20572;-82
2022/04/26 10:06:02;;;;;;;13.60;12.20;;;;;;;21.49;36.95;100372.53;4983040;28;20507;-80
2022/04/26 10:08:32;;;;;;;15.20;13.17;;;;;;;21.43;37.25;100366.84;4984927;28;20516;-79
2022/04/26 10:11:00;;;;;;;12.83;11.57;;;;;;;19.07;40.10;100371.47;4984686;28;20491;-77
2022/04/26 10:13:32;;;;;;;11.10;10.00;;;;;;;20.18;38.03;100369.00;4984910;28;20441;-79
2022/04/26 10:16:00;;;;;;;12.30;10.90;;;;;;;21.29;35.48;100367.91;4984971;28;20508;-80
2022/04/26 10:18:30;;;;;;;12.10;10.90;;;;;;;20.96;37.14;100370.59;4984921;28;20914;-79
2022/04/26 10:20:57;;;;;;;16.30;13.93;;;;;;;19.57;39.57;100373.16;4984672;28;20480;-80
2022/04/26 10:23:23;;;;;;;12.23;11.00;;;;;;;18.93;40.29;100379.47;4984987;28;20484;-79
2022/04/26 10:26:23;;;;;;;10.00;9.00;;;;;;;19.74;37.85;100371.03;4983732;28;20542;-80
2022/04/26 10:28:53;;;;;;;14.77;13.27;;;;;;;19.16;41.06;100383.84;4965384;29;20450;-80
2022/04/26 10:31:21;;;;;;;12.77;11.47;;;;;;;20.92;37.66;100382.88;4965229;28;20477;-80
2022/04/26 10:33:49;;;;;;;13.93;12.30;;;;;;;19.54;40.10;100372.72;4965105;29;20509;-79
2022/04/26 10:36:37;;;;;;;17.00;14.27;;;;;;;19.39;41.01;100375.53;4965201;28;20485;-78
2022/04/26 10:39:23;;;;;;;16.80;15.00;;;;;;;18.88;42.69;100379.19;4969205;28;20483;-80
2022/04/26 10:41:50;;;;;;;14.77;13.30;;;;;;;19.41;40.84;100381.59;4980971;28;20531;-79
2022/04/26 10:44:26;;;;;;;19.43;16.30;;;;;;;17.52;47.40;100370.44;4984195;28;20995;-78
2022/04/26 10:47:22;;;;;;;20.97;18.77;;;;;;;17.94;47.87;100363.63;4965819;28;20480;-80
2022/04/26 10:49:49;;;;;;;19.00;17.10;;;;;;;19.11;44.96;100376.34;4982661;28;20437;-79
2022/04/26 10:52:44;;;;;;;19.57;17.57;;;;;;;19.57;43.80;100367.75;4984494;28;21036;-79
2022/04/26 10:55:15;;;;;;;19.00;17.10;;;;;;;19.90;43.43;100366.34;4982163;28;20516;-79
2022/04/26 10:57:44;;;;;;;21.20;19.00;;;;;;;17.52;48.37;100370.44;4981895;28;20540;-79
2022/04/26 11:00:15;;;;;;;17.60;15.87;;;;;;;18.08;46.09;100377.34;4984032;28;20440;-79
2022/04/26 11:02:43;;;;;;;18.97;17.00;;;;;;;18.46;45.63;100379.94;4984528;28;20463;-76
2022/04/26 11:05:11;;;;;;;18.30;16.40;;;;;;;19.26;45.04;100388.97;4982745;28;20519;-80
2022/04/26 11:07:39;;;;;;;15.43;12.60;;;;;;;18.56;41.67;100391.31;4984907;28;20551;-81
2022/04/26 11:10:07;;;;;;;13.33;12.00;;;;;;;16.93;47.31;100387.28;4984663;28;20533;-80
2022/04/26 11:12:35;;;;;;;15.83;14.23;;;;;;;17.20;46.26;100393.16;4984070;28;20453;-81
2022/04/26 11:15:03;;;;;;;17.97;15.80;;;;;;;17.48;47.39;100388.91;4984153;28;20543;-79
2022/04/26 11:17:32;;;;;;;16.00;14.40;;;;;;;18.70;44.69;100386.91;4983389;28;20532;-80
2022/04/26 11:20:00;;;;;;;16.63;14.80;;;;;;;18.04;45.79;100391.25;4983589;28;20480;-81
2022/04/26 11:22:28;;;;;;;16.93;15.17;;;;;;;18.46;45.81;100397.00;4983946;28;20476;-81
2022/04/26 11:28:06;;;;;;;17.17;15.37;;;;;;;18.67;46.27;100400.81;4984593;28;20447;-81
2022/04/26 11:30:35;;;;;;;18.13;16.23;;;;;;;18.17;47.04;100396.00;4983479;28;20482;-79
2022/04/26 11:33:05;;;;;;;17.73;15.30;;;;;;;16.67;51.45;100395.69;4983598;28;20516;-80
2022/04/26 11:35:34;;;;;;;17.93;15.90;;;;;;;17.86;49.32;100394.31;4984166;28;20491;-82
2022/04/26 11:38:05;;;;;;;17.30;15.50;;;;;;;18.93;45.91;100398.44;4984435;28;20437;-85
2022/04/26 11:40:33;;;;;;;17.67;15.23;;;;;;;16.87;50.30;100396.09;4981747;28;20479;-83
2022/04/26 11:43:07;;;;;;;16.20;14.60;;;;;;;16.23;50.29;100405.16;4983168;28;20486;-79
2022/04/26 11:45:35;;;;;;;16.07;13.87;;;;;;;17.86;46.37;100402.44;4982385;28;20931;-84
2022/04/26 11:48:04;;;;;;;16.00;14.40;;;;;;;19.18;43.30;100419.72;4983135;28;20441;-83
2022/04/26 11:50:31;;;;;;;15.43;13.57;;;;;;;19.41;42.36;100414.13;4983035;28;20504;-80
2022/04/26 11:53:01;;;;;;;14.63;13.17;;;;;;;19.94;41.49;100401.00;4984145;28;20891;-83
2022/04/26 11:55:29;;;;;;;15.13;13.53;;;;;;;19.02;42.18;100407.28;4983773;28;20526;-84
2022/04/26 11:58:08;;;;;;;14.83;11.77;;;;;;;19.60;40.54;100406.34;4994227;28;20447;-85
2022/04/26 12:00:34;;;;;;;12.67;11.40;;;;;;;19.21;39.15;100422.06;4984047;28;20508;-84
2022/04/26 12:03:03;;;;;;;11.07;9.67;;;;;;;20.73;37.91;100415.25;4983251;28;20491;-84
2022/04/26 12:05:30;;;;;;;13.27;11.97;;;;;;;20.23;39.17;100409.97;4983280;28;20460;-82
2022/04/26 12:07:57;;;;;;;11.90;10.63;;;;;;;20.55;38.87;100404.88;4984122;28;20466;-84
2022/04/26 12:10:28;;;;;;;13.00;11.70;;;;;;;18.83;42.30;100406.03;4982107;28;20456;-83
2022/04/26 12:12:57;;;;;;;14.83;11.93;;;;;;;18.75;43.81;100411.53;4983291;28;20460;-80
2022/04/26 12:15:27;;;;;;;14.30;10.57;;;;;;;19.52;40.29;100405.47;4982571;28;20524;-82
2022/04/26 12:18:13;;;;;;;12.73;11.53;;;;;;;17.69;44.46;100401.72;4981464;28;20944;-81
2022/04/26 12:20:59;;;;;;;13.40;11.20;;;;;;;18.60;41.91;100401.56;5001236;28;20471;-81
2022/04/26 12:23:26;;;;;;;12.27;10.60;;;;;;;18.57;42.06;100403.81;4998393;28;20453;-81
2022/04/26 12:25:54;;;;;;;11.43;10.00;;;;;;;19.23;40.32;100397.47;4988060;28;20507;-79
2022/04/26 12:28:21;;;;;;;12.27;10.97;;;;;;;18.95;41.90;100409.91;4986557;28;20456;-81
2022/04/26 12:30:48;;;;;;;12.50;11.37;;;;;;;19.17;40.90;100408.06;4992249;28;20503;-81
2022/04/26 12:33:27;;;;;;;11.17;9.97;;;;;;;18.53;41.49;100405.22;4983825;28;20498;-81
2022/04/26 12:35:58;;;;;;;11.30;10.07;;;;;;;18.46;41.37;100399.72;4972900;28;20550;-80
2022/04/26 12:38:25;;;;;;;11.17;10.07;;;;;;;18.09;41.77;100397.94;4963418;29;20441;-81
2022/04/26 12:41:01;;;;;;;11.03;9.10;;;;;;;19.20;40.30;100401.44;4966956;28;21020;-81
2022/04/26 12:43:28;;;;;;;14.97;8.30;;;;;;;19.06;40.09;100400.47;4982461;28;20456;-81
2022/04/26 12:45:59;;;;;;;10.93;8.40;;;;;;;17.75;40.57;100396.59;4978346;28;20713;-80
2022/04/26 12:51:21;;;;;;;9.60;8.70;;;;;;;17.74;39.45;100401.19;4982151;28;20508;-80
2022/04/26 12:53:50;;;;;;;10.43;7.97;;;;;;;18.37;38.74;100403.56;4981967;28;20444;-80
2022/04/26 12:56:17;;;;;;;8.87;7.83;;;;;;;18.76;39.52;100389.66;4981670;28;20480;-80
2022/04/26 12:58:46;;;;;;;7.87;7.07;;;;;;;19.11;39.12;100392.59;4982617;28;20437;-80
2022/04/26 13:01:14;;;;;;;10.20;7.83;;;;;;;17.43;41.03;100385.91;4981646;28;20577;-79
2022/04/26 13:03:43;;;;;;;9.70;8.07;;;;;;;17.47;40.45;100400.72;4981753;28;20602;-79
2022/04/26 13:06:11;;;;;;;7.90;7.00;;;;;;;17.87;41.17;100395.16;4982630;28;20495;-80
2022/04/26 13:08:39;;;;;;;7.67;6.30;;;;;;;18.46;38.97;100388.91;4981994;28;20436;-78
2022/04/26 13:11:06;;;;;;;6.03;5.43;;;;;;;18.26;36.78;100391.31;4981613;28;20476;-81
2022/04/26 13:13:33;;;;;;;7.20;5.90;;;;;;;17.82;38.39;100390.25;4982170;28;20452;-80
2022/04/26 13:16:01;;;;;;;8.13;5.93;;;;;;;17.99;39.66;100390.13;4981004;28;20552;-79
2022/04/26 13:18:28;;;;;;;7.30;6.60;;;;;;;17.35;40.58;100398.66;4982764;28;20432;-80
2022/04/26 13:20:57;;;;;;;11.10;6.77;;;;;;;17.73;40.64;100385.13;4981602;28;20468;-81
2022/04/26 13:23:24;;;;;;;8.50;7.10;;;;;;;17.78;39.50;100391.66;4981867;28;20436;-79
2022/04/26 13:25:52;;;;;;;6.30;5.77;;;;;;;17.35;39.58;100396.78;4980723;28;20546;-80
2022/04/26 13:28:19;;;;;;;7.50;6.73;;;;;;;18.03;41.26;100394.97;4984207;28;20954;-79
2022/04/26 13:30:46;;;;;;;10.53;9.53;;;;;;;18.22;42.58;100385.44;4985258;28;20480;-81
2022/04/26 13:33:13;;;;;;;10.00;9.10;;;;;;;18.75;42.02;100389.88;4976005;28;20457;-80
2022/04/26 13:35:40;;;;;;;11.87;9.97;;;;;;;18.03;43.11;100381.44;4976445;28;20480;-80
2022/04/26 13:38:10;;;;;;;10.63;9.63;;;;;;;18.80;41.92;100390.13;4984389;28;20445;-80
2022/04/26 13:40:38;;;;;;;10.90;9.53;;;;;;;17.84;43.83;100390.06;4982916;28;20507;-80
2022/04/26 13:43:05;;;;;;;10.50;9.13;;;;;;;18.03;42.30;100394.13;4985386;28;20478;-79
2022/04/26 13:45:33;;;;;;;16.00;9.63;;;;;;;18.23;43.39;100386.31;4984031;28;20480;-80
2022/04/26 13:48:01;;;;;;;10.20;9.20;;;;;;;17.93;43.14;100391.69;4984914;28;20452;-80
2022/04/26 13:50:28;;;;;;;11.00;9.90;;;;;;;17.25;43.77;100391.59;4984412;28;20464;-81
2022/04/26 13:52:54;;;;;;;10.10;9.10;;;;;;;18.50;41.30;100395.59;4985075;28;20448;-80
2022/04/26 13:55:26;;;;;;;11.30;9.23;;;;;;;17.96;42.77;100390.50;4984039;28;20479;-80
2022/04/26 13:57:53;;;;;;;9.80;8.90;;;;;;;17.30;44.35;100401.88;4999090;28;20586;-79
2022/04/26 14:00:20;;;;;;;10.47;8.43;;;;;;;17.38;46.39;100407.22;4977612;28;20447;-81
2022/04/26 14:02:48;;;;;;;9.97;9.00;;;;;;;16.83;48.99;100406.38;4985352;28;20460;-81
2022/04/26 14:05:15;;;;;;;12.10;10.13;;;;;;;16.92;50.96;100401.81;4984486;28;20499;-81
2022/04/26 14:07:43;;;;;;;11.53;9.50;;;;;;;16.35;50.89;100416.38;4985300;28;20481;-82
2022/04/26 14:10:10;;;;;;;10.70;9.60;;;;;;;16.49;54.27;100412.97;4994254;28;20523;-81
2022/04/26 14:12:38;;;;;;;13.37;10.03;;;;;;;15.75;55.13;100417.72;4999871;28;20451;-82
2022/04/26 14:23:19;;;;;;;12.30;11.03;;;;;;;15.67;55.37;100418.53;5004515;28;20422;-81
2022/04/26 14:25:46;;;;;;;13.80;11.20;;;;;;;15.88;54.21;100415.31;4995648;28;20476;-82
2022/04/26 14:28:14;;;;;;;13.50;12.20;;;;;;;15.59;54.45;100410.47;4984030;28;20460;-81
2022/04/26 14:30:40;;;;;;;12.90;10.70;;;;;;;16.28;52.64;100416.25;4982675;28;20483;-82
2022/04/26 14:33:07;;;;;;;11.63;10.20;;;;;;;16.31;51.29;100421.28;4983982;28;20444;-82
2022/04/26 14:35:34;;;;;;;12.67;11.37;;;;;;;16.09;51.13;100414.81;4983476;28;20535;-80
2022/04/26 14:38:01;;;;;;;12.20;10.20;;;;;;;16.00;51.28;100418.50;4982841;28;20467;-81
2022/04/26 14:40:28;;;;;;;13.03;11.10;;;;;;;16.08;50.35;100421.19;4981570;28;21048;-80
2022/04/26 14:42:55;;;;;;;12.37;10.20;;;;;;;15.89;49.13;100422.41;4982300;28;20496;-81
2022/04/26 14:45:23;;;;;;;12.07;10.70;;;;;;;15.45;51.15;100417.38;4981932;28;20496;-80
2022/04/26 14:47:49;;;;;;;13.20;10.90;;;;;;;15.45;50.11;100420.06;4983079;28;20456;-81
2022/04/26 14:50:18;;;;;;;11.73;10.43;;;;;;;15.23;51.40;100422.41;4984055;28;20460;-80
2022/04/26 14:52:44;;;;;;;12.30;11.13;;;;;;;15.49;51.47;100416.03;5003010;28;20463;-81
2022/04/26 14:55:11;;;;;;;11.13;9.93;;;;;;;15.89;49.92;100419.72;4994776;28;20445;-81
2022/04/26 14:57:38;;;;;;;15.13;9.40;;;;;;;15.52;50.27;100420.22;4983900;28;20534;-80
2022/04/26 15:00:06;;;;;;;14.70;11.10;;;;;;;15.30;50.23;100433.34;4983250;28;21098;-80
2022/04/26 15:02:38;;;;;;;11.03;9.93;;;;;;;15.25;49.99;100425.75;4983726;28;20563;-80
2022/04/26 15:05:07;;;;;;;11.43;10.23;;;;;;;15.66;50.03;100416.00;4983468;28;20519;-80
2022/04/26 15:09:42;;;;;;;10.67;9.50;;;;;;;15.65;48.79;100415.16;4982019;28;21036;-79
2022/04/26 15:10:21;;;;;;;10.80;9.70;;;;;;;15.47;49.14;100427.97;4968764;28;20452;-79
2022/04/26 15:18:17;;;;;;;13.60;10.13;;;;;;;15.70;48.82;100420.06;4983513;28;20459;-80
2022/04/26 15:20:50;;;;;;;10.80;9.30;;;;;;;15.97;49.04;100422.41;4983061;28;20472;-80
2022/04/26 15:23:17;;;;;;;10.43;9.40;;;;;;;15.93;48.62;100417.53;4977242;28;20523;-81
2022/04/26 15:25:48;;;;;;;14.40;9.23;;;;;;;16.11;48.62;100420.88;4980280;28;20481;-79
2022/04/26 15:28:15;;;;;;;10.37;9.10;;;;;;;16.63;47.28;100429.44;4983382;28;20453;-81